createdAt,value
2019-01-21T00:01:00.436Z,-1.71
2019-01-21T00:03:29.703Z,-1.92
2019-01-21T00:05:59.047Z,-2.08
2019-01-21T00:08:28.228Z,-2.09
2019-01-21T00:10:57.556Z,-2.02
2019-01-21T00:13:26.733Z,-1.98
2019-01-21T00:15:55.979Z,-2.06
2019-01-21T00:18:25.089Z,-2.06
2019-01-21T00:20:54.231Z,-2.07
2019-01-21T00:23:23.493Z,-2.16
2019-01-21T00:25:52.757Z,-2.20
2019-01-21T00:28:21.879Z,-2.28
2019-01-21T00:30:51.067Z,-2.52
2019-01-21T00:33:20.452Z,-2.38
2019-01-21T00:35:49.646Z,-2.50
2019-01-21T00:38:18.848Z,-2.51
2019-01-21T00:40:47.971Z,-2.40
2019-01-21T00:43:17.124Z,-2.42
2019-01-21T00:45:48.718Z,-2.53
2019-01-21T00:48:17.814Z,-2.65
2019-01-21T00:50:46.912Z,-2.77
2019-01-21T00:53:16.249Z,-2.72
2019-01-21T00:55:45.343Z,-2.72
2019-01-21T00:58:14.606Z,-2.90
2019-01-21T01:00:44.057Z,-2.80
2019-01-21T01:03:13.217Z,-2.77
2019-01-21T01:05:42.355Z,-2.76
2019-01-21T01:08:11.612Z,-2.74
2019-01-21T01:10:40.730Z,-3.01
2019-01-21T01:13:10.004Z,-2.90
2019-01-21T01:15:39.227Z,-2.92
2019-01-21T01:18:08.374Z,-3.03
2019-01-21T01:20:37.653Z,-2.74
2019-01-21T01:23:07.120Z,-2.79
2019-01-21T01:25:36.340Z,-2.70
2019-01-21T01:28:05.429Z,-2.63
2019-01-21T01:30:34.666Z,-2.74
2019-01-21T01:33:03.846Z,-2.81
2019-01-21T01:35:33.010Z,-2.67
2019-01-21T01:38:02.145Z,-2.67
2019-01-21T01:40:31.376Z,-2.74
2019-01-21T01:43:00.516Z,-2.66
2019-01-21T01:45:29.769Z,-2.64
2019-01-21T01:48:07.802Z,-2.79
2019-01-21T01:50:37.023Z,-2.89
2019-01-21T01:53:06.312Z,-2.87
2019-01-21T01:55:36.255Z,-2.96
2019-01-21T01:58:06.998Z,-3.11
2019-01-21T02:00:36.749Z,-3.00
2019-01-21T02:03:06.151Z,-2.94
2019-01-21T02:05:35.283Z,-3.12
2019-01-21T02:08:04.434Z,-3.15
2019-01-21T02:10:34.034Z,-3.11
2019-01-21T02:13:03.137Z,-3.11
2019-01-21T02:15:32.370Z,-3.17
2019-01-21T02:18:01.491Z,-3.24
2019-01-21T02:20:30.633Z,-3.10
2019-01-21T02:23:05.787Z,-3.13
2019-01-21T02:25:45.505Z,-3.08
2019-01-21T02:28:46.069Z,-3.04
2019-01-21T02:31:35.697Z,-3.11
2019-01-21T02:34:58.022Z,-3.04
2019-01-21T02:38:02.504Z,-3.02
2019-01-21T02:41:07.035Z,-2.95
2019-01-21T02:44:29.547Z,-3.02
2019-01-21T02:47:10.665Z,-3.06
2019-01-21T02:50:23.088Z,-3.01
2019-01-21T02:53:35.359Z,-3.03
2019-01-21T02:56:50.289Z,-3.02
2019-01-21T02:59:59.585Z,-3.11
2019-01-21T03:03:05.742Z,-3.18
2019-01-21T03:06:22.023Z,-3.16
2019-01-21T03:09:38.124Z,-3.03
2019-01-21T03:12:48.325Z,-3.05
2019-01-21T03:16:01.659Z,-3.13
2019-01-21T03:19:36.328Z,-3.13
2019-01-21T03:22:41.436Z,-3.06
2019-01-21T03:25:48.569Z,-3.21
2019-01-21T03:28:58.691Z,-3.20
2019-01-21T03:32:03.857Z,-3.23
2019-01-21T03:35:13.065Z,-3.16
2019-01-21T03:38:35.787Z,-3.17
2019-01-21T03:41:43.151Z,-3.23
2019-01-21T03:44:41.683Z,-3.30
2019-01-21T03:47:33.715Z,-3.30
2019-01-21T03:50:37.771Z,-3.27
2019-01-21T03:53:46.278Z,-3.30
2019-01-21T03:56:25.637Z,-3.29
2019-01-21T03:59:43.915Z,-3.31
2019-01-21T04:03:01.427Z,-3.28
2019-01-21T04:05:45.788Z,-3.44
2019-01-21T04:08:57.336Z,-3.46
2019-01-21T04:12:15.297Z,-3.51
2019-01-21T04:15:28.740Z,-3.39
2019-01-21T04:18:30.298Z,-3.31
2019-01-21T04:21:41.750Z,-3.31
2019-01-21T04:24:48.606Z,-3.36
2019-01-21T04:27:43.158Z,-3.35
2019-01-21T04:30:41.185Z,-3.46
2019-01-21T04:33:28.493Z,-3.38
2019-01-21T04:36:31.029Z,-3.52
2019-01-21T04:39:37.334Z,-3.57
2019-01-21T04:42:38.994Z,-3.60
2019-01-21T04:45:36.717Z,-3.56
2019-01-21T04:48:46.408Z,-3.62
2019-01-21T04:51:25.225Z,-3.66
2019-01-21T04:54:35.582Z,-3.73
2019-01-21T04:57:38.886Z,-3.75
2019-01-21T05:00:17.460Z,-3.73
2019-01-21T05:03:50.061Z,-3.81
2019-01-21T05:07:03.181Z,-3.80
2019-01-21T05:10:02.503Z,-3.85
2019-01-21T05:13:02.260Z,-3.89
2019-01-21T05:15:57.427Z,-3.89
2019-01-21T05:18:51.826Z,-3.97
2019-01-21T05:21:46.366Z,-3.99
2019-01-21T05:24:47.839Z,-3.97
2019-01-21T05:27:49.117Z,-4.00
2019-01-21T05:30:44.601Z,-4.04
2019-01-21T05:33:54.841Z,-4.08
2019-01-21T05:36:50.558Z,-4.10
2019-01-21T05:39:52.969Z,-4.16
2019-01-21T05:42:58.206Z,-4.08
2019-01-21T05:45:46.830Z,-4.14
2019-01-21T05:48:52.054Z,-4.17
2019-01-21T05:52:10.054Z,-4.23
2019-01-21T05:55:04.575Z,-4.25
2019-01-21T05:58:20.838Z,-4.26
2019-01-21T06:01:13.371Z,-4.35
2019-01-21T06:04:48.342Z,-4.43
2019-01-21T06:08:12.638Z,-4.47
2019-01-21T06:11:23.212Z,-4.43
2019-01-21T06:14:52.326Z,-4.46
2019-01-21T06:17:43.209Z,-4.50
2019-01-21T06:20:49.264Z,-4.55
2019-01-21T06:23:42.439Z,-4.52
2019-01-21T06:26:52.609Z,-4.50
2019-01-21T06:29:50.158Z,-4.59
2019-01-21T06:32:54.978Z,-4.65
2019-01-21T06:35:52.833Z,-4.66
2019-01-21T06:38:53.401Z,-4.62
2019-01-21T06:42:04.193Z,-4.64
2019-01-21T06:45:10.539Z,-4.65
2019-01-21T06:48:24.134Z,-4.67
2019-01-21T06:51:27.211Z,-4.76
2019-01-21T06:54:32.331Z,-4.77
2019-01-21T06:57:50.247Z,-4.85
2019-01-21T07:00:48.835Z,-4.89
2019-01-21T07:04:11.038Z,-4.92
2019-01-21T07:07:33.376Z,-4.93
2019-01-21T07:10:45.989Z,-4.99
2019-01-21T07:13:38.518Z,-4.82
2019-01-21T07:16:41.546Z,-4.72
2019-01-21T07:19:41.328Z,-4.82
2019-01-21T07:22:32.751Z,-4.92
2019-01-21T07:25:18.962Z,-4.97
2019-01-21T07:28:19.552Z,-4.96
2019-01-21T07:31:13.021Z,-4.98
2019-01-21T07:34:10.241Z,-4.98
2019-01-21T07:37:19.546Z,-4.96
2019-01-21T07:40:51.027Z,-4.98
2019-01-21T07:43:45.393Z,-5.01
2019-01-21T07:46:38.541Z,-5.04
2019-01-21T07:49:41.421Z,-4.95
2019-01-21T07:52:57.615Z,-4.81
2019-01-21T07:55:52.107Z,-4.67
2019-01-21T07:59:06.960Z,-4.38
2019-01-21T08:02:02.060Z,-4.12
2019-01-21T08:04:48.975Z,-3.87
2019-01-21T08:07:33.471Z,-3.70
2019-01-21T08:10:36.868Z,-3.53
2019-01-21T08:13:53.791Z,-3.42
2019-01-21T08:17:14.998Z,-3.22
2019-01-21T08:20:34.583Z,-3.04
2019-01-21T08:23:46.599Z,-2.98
2019-01-21T08:26:55.851Z,-2.86
2019-01-21T08:30:04.245Z,-2.68
2019-01-21T08:33:16.384Z,-2.61
2019-01-21T08:36:31.497Z,-2.55
2019-01-21T08:39:48.699Z,-2.40
2019-01-21T08:43:14.393Z,-2.24
2019-01-21T08:46:28.345Z,-2.33
2019-01-21T08:49:41.210Z,-2.17
2019-01-21T08:52:51.873Z,-2.07
2019-01-21T08:56:00.921Z,-1.87
2019-01-21T08:59:20.661Z,-1.88
2019-01-21T09:02:33.166Z,-1.97
2019-01-21T09:05:45.836Z,-1.76
2019-01-21T09:09:11.605Z,-1.50
2019-01-21T09:12:07.278Z,-1.16
2019-01-21T09:15:28.755Z,-1.05
2019-01-21T09:18:20.230Z,-0.98
2019-01-21T09:21:22.504Z,-0.74
2019-01-21T09:24:40.309Z,-0.70
2019-01-21T09:27:44.662Z,-0.92
2019-01-21T09:30:56.565Z,-1.35
2019-01-21T09:33:56.375Z,-1.00
2019-01-21T09:36:52.570Z,-1.07
2019-01-21T09:40:02.885Z,-0.97
2019-01-21T09:43:19.351Z,-0.95
2019-01-21T09:46:42.303Z,-0.86
2019-01-21T09:49:09.909Z,-0.91
2019-01-21T09:51:53.062Z,-0.69
2019-01-21T09:54:22.265Z,-0.70
2019-01-21T09:56:53.280Z,-0.37
2019-01-21T09:59:23.677Z,-0.19
2019-01-21T10:01:56.589Z,-0.14
2019-01-21T10:04:38.259Z,-0.11
2019-01-21T10:07:45.571Z,-0.37
2019-01-21T10:10:21.771Z,-0.21
2019-01-21T10:13:37.331Z,-0.03
2019-01-21T10:16:39.234Z,0.07
2019-01-21T10:19:36.607Z,0.12
2019-01-21T10:22:47.377Z,0.31
2019-01-21T10:25:38.432Z,0.43
2019-01-21T10:28:37.284Z,0.50
2019-01-21T10:31:23.014Z,0.42
2019-01-21T10:34:39.884Z,0.52
2019-01-21T10:37:33.581Z,0.54
2019-01-21T10:40:20.522Z,0.60
2019-01-21T10:43:38.523Z,0.54
2019-01-21T10:47:01.050Z,0.57
2019-01-21T10:50:29.705Z,0.63
2019-01-21T10:53:16.745Z,0.26
2019-01-21T10:56:29.633Z,0.51
2019-01-21T10:59:40.642Z,0.46
2019-01-21T11:02:46.497Z,0.53
2019-01-21T11:05:43.826Z,0.25
2019-01-21T11:08:39.272Z,0.12
2019-01-21T11:11:45.488Z,0.23
2019-01-21T11:14:54.934Z,0.45
2019-01-21T11:18:10.055Z,0.15
2019-01-21T11:21:04.516Z,0.07
2019-01-21T11:24:13.725Z,0.07
2019-01-21T11:27:19.915Z,0.38
2019-01-21T11:30:42.979Z,0.54
2019-01-21T11:33:37.580Z,0.64
2019-01-21T11:36:54.147Z,0.60
2019-01-21T11:39:46.674Z,0.74
2019-01-21T11:42:51.423Z,0.68
2019-01-21T11:46:09.751Z,0.59
2019-01-21T11:49:00.932Z,0.82
2019-01-21T11:52:07.473Z,0.66
2019-01-21T11:55:17.391Z,0.84
2019-01-21T11:58:11.161Z,0.79
2019-01-21T12:01:17.329Z,0.90
2019-01-21T12:04:22.389Z,0.92
2019-01-21T12:07:47.734Z,1.05
2019-01-21T12:10:47.886Z,1.08
2019-01-21T12:13:40.779Z,1.15
2019-01-21T12:16:44.042Z,1.23
2019-01-21T12:19:57.878Z,1.16
2019-01-21T12:23:10.819Z,1.07
2019-01-21T12:25:49.545Z,1.16
2019-01-21T12:28:25.947Z,1.24
2019-01-21T12:31:30.743Z,1.27
2019-01-21T12:35:00.279Z,1.27
2019-01-21T12:37:58.671Z,1.18
2019-01-21T12:40:53.406Z,1.14
2019-01-21T12:43:49.768Z,1.14
2019-01-21T12:46:47.078Z,1.12
2019-01-21T12:49:36.618Z,1.04
2019-01-21T12:52:40.367Z,0.96
2019-01-21T12:55:54.763Z,0.88
2019-01-21T12:58:31.529Z,1.15
2019-01-21T13:01:44.282Z,1.15
2019-01-21T13:04:37.381Z,0.91
2019-01-21T13:08:04.337Z,0.99
2019-01-21T13:11:32.677Z,0.99
2019-01-21T13:14:41.831Z,1.00
2019-01-21T13:17:33.327Z,0.98
2019-01-21T13:20:32.716Z,1.12
2019-01-21T13:23:45.482Z,0.84
2019-01-21T13:27:10.614Z,0.73
2019-01-21T13:30:24.054Z,0.86
2019-01-21T13:33:14.727Z,0.80
2019-01-21T13:36:28.047Z,0.81
2019-01-21T13:39:46.097Z,0.72
2019-01-21T13:42:26.953Z,0.59
2019-01-21T13:45:37.720Z,0.70
2019-01-21T13:48:37.503Z,0.85
2019-01-21T13:51:43.412Z,1.00
2019-01-21T13:54:48.634Z,0.95
2019-01-21T13:57:41.458Z,0.79
2019-01-21T14:00:41.825Z,0.79
2019-01-21T14:03:51.219Z,0.82
2019-01-21T14:06:59.486Z,0.82
2019-01-21T14:10:15.875Z,0.76
2019-01-21T14:13:12.741Z,0.85
2019-01-21T14:15:56.710Z,0.85
2019-01-21T14:18:44.364Z,1.15
2019-01-21T14:21:49.800Z,0.96
2019-01-21T14:24:43.623Z,0.92
2019-01-21T14:27:38.744Z,0.91
2019-01-21T14:30:56.943Z,0.95
2019-01-21T14:33:40.711Z,0.95
2019-01-21T14:36:41.191Z,1.07
2019-01-21T14:39:51.707Z,1.11
2019-01-21T14:42:50.750Z,1.13
2019-01-21T14:46:04.837Z,0.98
2019-01-21T14:48:54.756Z,1.04
2019-01-21T14:51:58.110Z,1.02
2019-01-21T14:55:26.540Z,0.92
2019-01-21T14:58:23.133Z,0.92
2019-01-21T15:01:26.893Z,0.84
2019-01-21T15:04:53.763Z,0.81
2019-01-21T15:07:35.526Z,1.33
2019-01-21T15:10:50.532Z,1.33
2019-01-21T15:14:02.692Z,1.20
2019-01-21T15:17:31.050Z,1.06
2019-01-21T15:20:11.536Z,1.06
2019-01-21T15:23:07.596Z,1.25
2019-01-21T15:26:14.922Z,1.25
2019-01-21T15:29:21.443Z,1.05
2019-01-21T15:32:26.596Z,1.11
2019-01-21T15:35:58.147Z,1.06
2019-01-21T15:39:11.076Z,0.90
2019-01-21T15:42:19.944Z,0.85
2019-01-21T15:45:33.052Z,0.72
2019-01-21T15:48:24.993Z,0.72
2019-01-21T15:51:37.811Z,0.62
2019-01-21T15:54:35.109Z,0.53
2019-01-21T15:57:24.819Z,0.40
2019-01-21T16:00:30.947Z,0.40
2019-01-21T16:03:29.659Z,0.34
2019-01-21T16:06:46.465Z,0.22
2019-01-21T16:09:49.719Z,0.15
2019-01-21T16:13:01.907Z,0.06
2019-01-21T16:15:57.904Z,-0.04
2019-01-21T16:18:48.994Z,0.01
2019-01-21T16:21:51.524Z,0.01
2019-01-21T16:24:57.758Z,-0.05
2019-01-21T16:28:11.064Z,-0.09
2019-01-21T16:30:47.143Z,-0.07
2019-01-21T16:34:11.624Z,-0.19
2019-01-21T16:37:12.121Z,-0.13
2019-01-21T16:40:17.262Z,-0.27
2019-01-21T16:42:46.607Z,-0.40
2019-01-21T16:45:17.008Z,-0.54
2019-01-21T16:47:46.132Z,-0.59
2019-01-21T16:50:15.384Z,-0.66
2019-01-21T16:52:47.429Z,-0.73
2019-01-21T16:55:17.032Z,-0.77
2019-01-21T16:57:46.139Z,-0.85
2019-01-21T17:00:16.019Z,-0.90
2019-01-21T17:02:45.236Z,-0.97
2019-01-21T17:05:15.324Z,-1.02
2019-01-21T17:07:45.935Z,-1.06
2019-01-21T17:10:15.285Z,-1.16
2019-01-21T17:12:44.424Z,-1.22
2019-01-21T17:15:13.826Z,-1.30
2019-01-21T17:17:44.335Z,-1.39
2019-01-21T17:20:16.904Z,-1.42
2019-01-21T17:22:46.162Z,-1.43
2019-01-21T17:25:15.895Z,-1.41
2019-01-21T17:27:45.257Z,-1.46
2019-01-21T17:30:15.607Z,-1.49
2019-01-21T17:32:44.858Z,-1.55
2019-01-21T17:35:14.275Z,-1.59
2019-01-21T17:37:43.344Z,-1.68
2019-01-21T17:40:14.216Z,-1.72
2019-01-21T17:42:43.514Z,-1.73
2019-01-21T17:45:15.766Z,-1.75
2019-01-21T17:47:45.085Z,-1.75
2019-01-21T17:50:15.919Z,-1.81
2019-01-21T17:52:45.307Z,-1.82
2019-01-21T17:55:14.992Z,-1.90
2019-01-21T17:57:44.187Z,-1.95
2019-01-21T18:00:19.109Z,-2.26
2019-01-21T18:02:48.277Z,-2.21
2019-01-21T18:05:17.512Z,-2.14
2019-01-21T18:07:46.856Z,-2.16
2019-01-21T18:10:19.990Z,-2.22
2019-01-21T18:12:49.051Z,-2.25
2019-01-21T18:15:18.141Z,-2.26
2019-01-21T18:17:47.259Z,-2.27
2019-01-21T18:20:20.414Z,-2.31
2019-01-21T18:22:53.598Z,-2.35
2019-01-21T18:25:24.764Z,-2.38
2019-01-21T18:27:53.962Z,-2.45
2019-01-21T18:30:26.651Z,-2.48
2019-01-21T18:33:02.120Z,-2.44
2019-01-21T18:35:31.451Z,-2.44
2019-01-21T18:38:02.487Z,-2.48
2019-01-21T18:40:31.827Z,-2.46
2019-01-21T18:43:01.066Z,-2.52
2019-01-21T18:45:30.613Z,-2.57
2019-01-21T18:47:59.760Z,-2.56
2019-01-21T18:50:28.864Z,-2.58
2019-01-21T18:52:57.989Z,-2.67
2019-01-21T18:55:27.098Z,-2.73
2019-01-21T18:57:56.352Z,-2.87
2019-01-21T19:00:26.707Z,-2.99
2019-01-21T19:02:55.801Z,-3.02
2019-01-21T19:05:25.130Z,-3.09
2019-01-21T19:07:54.469Z,-3.01
2019-01-21T19:10:25.754Z,-3.05
2019-01-21T19:12:54.908Z,-3.05
2019-01-21T19:15:29.678Z,-3.11
2019-01-21T19:17:58.818Z,-3.13
2019-01-21T19:20:31.290Z,-3.21
2019-01-21T19:23:01.642Z,-3.20
2019-01-21T19:25:32.219Z,-3.21
2019-01-21T19:28:01.546Z,-3.25
2019-01-21T19:30:30.750Z,-3.29
2019-01-21T19:33:00.204Z,-3.35
2019-01-21T19:35:33.119Z,-3.31
2019-01-21T19:38:02.401Z,-3.33
2019-01-21T19:40:32.269Z,-3.35
2019-01-21T19:43:01.938Z,-3.40
2019-01-21T19:45:31.359Z,-3.44
2019-01-21T19:48:00.757Z,-3.50
2019-01-21T19:50:30.544Z,-3.62
2019-01-21T19:52:59.819Z,-3.61
2019-01-21T19:55:32.718Z,-3.65
2019-01-21T19:58:02.385Z,-3.64
2019-01-21T20:00:31.515Z,-3.65
2019-01-21T20:03:01.930Z,-3.70
2019-01-21T20:05:31.582Z,-3.76
2019-01-21T20:08:00.856Z,-3.76
2019-01-21T20:10:30.396Z,-3.83
2019-01-21T20:12:59.536Z,-3.87
2019-01-21T20:15:29.485Z,-3.95
2019-01-21T20:18:00.553Z,-4.04
2019-01-21T20:20:32.286Z,-4.07
2019-01-21T20:23:01.440Z,-4.04
2019-01-21T20:25:30.860Z,-4.02
2019-01-21T20:28:03.631Z,-3.95
2019-01-21T20:30:32.996Z,-3.88
2019-01-21T20:33:02.641Z,-3.87
2019-01-21T20:35:32.256Z,-3.93
2019-01-21T20:38:01.361Z,-3.99
2019-01-21T20:40:30.479Z,-3.95
2019-01-21T20:42:59.803Z,-3.97
2019-01-21T20:45:29.165Z,-4.02
2019-01-21T20:47:58.321Z,-4.15
2019-01-21T20:50:29.308Z,-4.15
2019-01-21T20:52:58.661Z,-4.24
2019-01-21T20:55:28.806Z,-4.26
2019-01-21T20:57:57.945Z,-4.29
2019-01-21T21:00:28.960Z,-4.37
2019-01-21T21:03:02.425Z,-4.46
2019-01-21T21:05:31.501Z,-4.49
2019-01-21T21:08:00.548Z,-4.54
2019-01-21T21:10:29.800Z,-4.48
2019-01-21T21:12:59.005Z,-4.50
2019-01-21T21:15:30.621Z,-4.43
2019-01-21T21:17:59.693Z,-4.49
2019-01-21T21:20:29.096Z,-4.44
2019-01-21T21:22:58.253Z,-4.34
2019-01-21T21:25:27.452Z,-4.37
2019-01-21T21:27:56.523Z,-4.37
2019-01-21T21:30:27.956Z,-4.40
2019-01-21T21:32:57.270Z,-4.39
2019-01-21T21:35:26.419Z,-4.41
2019-01-21T21:37:55.463Z,-4.55
2019-01-21T21:40:24.683Z,-4.53
2019-01-21T21:42:53.755Z,-4.57
2019-01-21T21:45:22.860Z,-4.52
2019-01-21T21:47:52.250Z,-4.60
2019-01-21T21:50:27.041Z,-4.63
2019-01-21T21:52:56.455Z,-4.62
2019-01-21T21:55:25.625Z,-4.63
2019-01-21T21:57:54.693Z,-4.73
2019-01-21T22:00:25.258Z,-4.87
2019-01-21T22:02:54.494Z,-4.95
2019-01-21T22:05:24.545Z,-4.86
2019-01-21T22:07:53.643Z,-4.80
2019-01-21T22:10:24.887Z,-4.83
2019-01-21T22:12:54.044Z,-4.79
2019-01-21T22:15:23.504Z,-4.72
2019-01-21T22:17:52.600Z,-4.67
2019-01-21T22:20:23.228Z,-4.75
2019-01-21T22:22:52.506Z,-4.71
2019-01-21T22:25:22.186Z,-4.65
2019-01-21T22:27:51.296Z,-4.65
2019-01-21T22:30:25.517Z,-4.59
2019-01-21T22:32:54.620Z,-4.68
2019-01-21T22:35:23.886Z,-4.68
2019-01-21T22:37:54.997Z,-4.62
2019-01-21T22:40:24.751Z,-4.77
2019-01-21T22:42:53.878Z,-4.90
2019-01-21T22:45:23.470Z,-4.81
2019-01-21T22:47:52.887Z,-4.76
2019-01-21T22:50:22.363Z,-4.76
2019-01-21T22:52:54.343Z,-4.72
2019-01-21T22:55:23.779Z,-4.74
2019-01-21T22:57:52.834Z,-4.74
2019-01-21T23:00:46.341Z,-4.79
2019-01-21T23:03:15.992Z,-4.84
2019-01-21T23:05:48.089Z,-4.89
2019-01-21T23:08:17.332Z,-4.78
2019-01-21T23:10:46.523Z,-4.80
2019-01-21T23:13:15.641Z,-4.83
2019-01-21T23:15:44.872Z,-4.92
2019-01-21T23:18:13.993Z,-4.95
2019-01-21T23:20:43.087Z,-4.91
2019-01-21T23:23:17.115Z,-4.98
2019-01-21T23:25:46.399Z,-5.01
2019-01-21T23:28:15.536Z,-5.19
2019-01-21T23:30:44.633Z,-5.20
2019-01-21T23:33:13.975Z,-5.17
2019-01-21T23:35:43.268Z,-5.35
2019-01-21T23:38:12.541Z,-5.46
2019-01-21T23:40:41.637Z,-5.50
2019-01-21T23:43:10.729Z,-5.51
2019-01-21T23:45:39.992Z,-5.57
2019-01-21T23:48:09.479Z,-5.61
2019-01-21T23:50:38.706Z,-5.62
2019-01-21T23:53:07.794Z,-5.55
2019-01-21T23:55:36.923Z,-5.52
2019-01-21T23:58:06.163Z,-5.51
